Map

Track Data

SID SEASON NUMBER BASIN SUBBASIN NAME ISO_TIME NATURE LAT LON WMO_WIND WMO_PRES WMO_AGENCY TRACK_TYPE DIST2LAND LANDFALL IFLAG USA_AGENCY USA_ATCF_ID USA_LAT USA_LON USA_RECORD USA_STATUS USA_WIND USA_PRES USA_SSHS USA_R34_NE USA_R34_SE USA_R34_SW USA_R34_NW USA_R50_NE USA_R50_SE USA_R50_SW USA_R50_NW USA_R64_NE USA_R64_SE USA_R64_SW USA_R64_NW USA_POCI USA_ROCI USA_RMW USA_EYE TOKYO_LAT TOKYO_LON TOKYO_GRADE TOKYO_WIND TOKYO_PRES TOKYO_R50_DIR TOKYO_R50_LONG TOKYO_R50_SHORT TOKYO_R30_DIR TOKYO_R30_LONG TOKYO_R30_SHORT TOKYO_LAND CMA_LAT CMA_LON CMA_CAT CMA_WIND CMA_PRES HKO_LAT HKO_LON HKO_CAT HKO_WIND HKO_PRES NEWDELHI_LAT NEWDELHI_LON NEWDELHI_GRADE NEWDELHI_WIND NEWDELHI_PRES NEWDELHI_CI NEWDELHI_DP NEWDELHI_POCI REUNION_LAT REUNION_LON REUNION_TYPE REUNION_WIND REUNION_PRES REUNION_TNUM REUNION_CI REUNION_RMW REUNION_R34_NE REUNION_R34_SE REUNION_R34_SW REUNION_R34_NW REUNION_R50_NE REUNION_R50_SE REUNION_R50_SW REUNION_R50_NW REUNION_R64_NE REUNION_R64_SE REUNION_R64_SW REUNION_R64_NW BOM_LAT BOM_LON BOM_TYPE BOM_WIND BOM_PRES BOM_TNUM BOM_CI BOM_RMW BOM_R34_NE BOM_R34_SE BOM_R34_SW BOM_R34_NW BOM_R50_NE BOM_R50_SE BOM_R50_SW BOM_R50_NW BOM_R64_NE BOM_R64_SE BOM_R64_SW BOM_R64_NW BOM_ROCI BOM_POCI BOM_EYE BOM_POS_METHOD BOM_PRES_METHOD NADI_LAT NADI_LON NADI_CAT NADI_WIND NADI_PRES WELLINGTON_LAT WELLINGTON_LON WELLINGTON_WIND WELLINGTON_PRES DS824_LAT DS824_LON DS824_STAGE DS824_WIND DS824_PRES TD9636_LAT TD9636_LON TD9636_STAGE TD9636_WIND TD9636_PRES TD9635_LAT TD9635_LON TD9635_WIND TD9635_PRES TD9635_ROCI NEUMANN_LAT NEUMANN_LON NEUMANN_CLASS NEUMANN_WIND NEUMANN_PRES MLC_LAT MLC_LON MLC_CLASS MLC_WIND MLC_PRES USA_GUST BOM_GUST BOM_GUST_PER REUNION_GUST REUNION_GUST_PER USA_SEAHGT USA_SEARAD_NE USA_SEARAD_SE USA_SEARAD_SW USA_SEARAD_NW STORM_SPEED STORM_DIR
1967364S17043 1968 147 SI MM DEBBY 1967-12-30 06:00:00 TS -16.6400 43.0200 reunion main 134 120 O____O___OO_O_ jtwc_sh SH091968 -17.0000 43.5000 -1 -16.1000 42.3000 2 9.90000 -17.0000 43.5000 TC 25 -17.0000 43.5000 7 -16.1000 42.3000 TC 20 2 102
1967364S17043 1968 147 SI MM DEBBY 1967-12-30 09:00:00 TS -16.6656 43.1449 main 120 101 P____P___PP_P_ SH091968 -17.0375 43.4875 -1 -16.0851 42.6200 2 -17.0375 43.4875 TC 25 -17.0828 43.5095 7 -16.0851 42.6200 TC 22 2 107
1967364S17043 1968 147 SI MM DEBBY 1967-12-30 12:00:00 TS -16.7125 43.2650 reunion main 101 86 O____O___OP_O_ jtwc_sh SH091968 -17.1000 43.5000 -1 -16.1000 42.9000 99 9.90000 -17.1000 43.5000 TC 25 -17.1625 43.5251 7 -16.1000 42.9000 TC 25 3 120
1967364S17043 1968 147 SI MM DEBBY 1967-12-30 15:00:00 TS -16.7952 43.3767 main 86 72 P____P___PP_P_ SH091968 -17.2000 43.5500 -1 -16.1699 43.1150 99 -17.2000 43.5500 TC 30 -17.2360 43.5532 7 -16.1699 43.1150 TC 27 3 133
1967364S17043 1968 147 SI MM DEBBY 1967-12-30 18:00:00 TS -16.9000 43.4800 reunion main 72 57 O____O___OO_O_ jtwc_sh SH091968 -17.3000 43.6000 -1 -16.3000 43.3000 99 9.90000 -17.3000 43.6000 TC 35 -17.3000 43.6000 2 -16.3000 43.3000 TC 30 3 138
1967364S17043 1968 147 SI MM DEBBY 1967-12-30 21:00:00 TS -17.0109 43.5791 main 57 43 P____P___PP_P_ SH091968 -17.3500 43.6000 -1 -16.5000 43.5149 99 -17.3500 43.6000 TC 35 -17.3546 43.6654 2 -16.5000 43.5149 TC 30 3 141
1967364S17043 1968 147 SI MM DEBBY 1967-12-31 00:00:00 TS -17.1225 43.6649 reunion main 43 38 O____O___OP_O_ jtwc_sh SH091968 -17.4000 43.6000 -1 -16.7000 43.7000 99 9.90000 -17.4000 43.6000 TC 35 -17.4124 43.7246 2 -16.7000 43.7000 TC 30 3 140
1967364S17043 1968 147 SI MM DEBBY 1967-12-31 03:00:00 TS -17.2058 43.7473 main 38 24 P____P___PP_P_ SH091968 -17.4850 43.6724 -1 -16.7850 43.8226 99 -17.4850 43.6724 TC 35 -17.4889 43.7465 2 -16.7850 43.8226 TC 32 2 150
1967364S17043 1968 147 SI MM DEBBY 1967-12-31 06:00:00 TS -17.3200 43.7800 reunion main 24 10 O____O___OO_O_ jtwc_sh SH091968 -17.6000 43.7000 -1 -16.9000 43.9000 2 9.90000 -17.6000 43.7000 TC 35 -17.6000 43.7000 2 -16.9000 43.9000 TC 35 3 0
1967364S17043 1968 147 SI MM DEBBY 1967-12-31 09:00:00 TS -17.5104 43.7448 main 21 21 P____P___PP_P_ SH091968 -17.7275 43.6024 -1 -17.1625 43.9799 2 -17.7275 43.6024 TC 35 -17.7722 43.5593 2 -17.1625 43.9799 TC 32 5 198
1967364S17043 1968 147 SI MM DEBBY 1967-12-31 12:00:00 TS -17.7555 43.6296 reunion main 42 42 O____O___OP_O_ jtwc_sh SH091968 -17.9000 43.4000 -1 -17.5000 44.0000 99 9.90000 -17.9000 43.4000 TC 35 -17.9775 43.3478 2 -17.5000 44.0000 TC 30 6 207
1967364S17043 1968 147 SI MM DEBBY 1967-12-31 15:00:00 TS -18.0357 43.4594 main 52 52 P____P___PP_P_ SH091968 -18.1425 43.1301 -1 -17.8498 43.9748 99 -18.1425 43.1301 TC 35 -18.1941 43.0874 2 -17.8498 43.9748 TC 30 7 216
1967364S17043 1968 147 SI MM DEBBY 1967-12-31 18:00:00 TS -18.3200 43.2000 reunion main 84 84 O____O___OO_O_ jtwc_sh SH091968 -18.4000 42.8000 -1 -18.2000 43.8000 99 9.90000 -18.4000 42.8000 TC 35 -18.4000 42.8000 2 -18.2000 43.8000 TC 30 8 227
1967364S17043 1968 147 SI MM DEBBY 1967-12-31 21:00:00 TS -18.5871 42.8358 main 128 128 P____P___PP_P_ SH091968 -18.6225 42.4425 -1 -18.5526 43.4104 99 -18.6225 42.4425 TC 35 -18.5851 42.4731 2 -18.5526 43.4104 TC 30 9 237
1967364S17043 1968 147 SI MM DEBBY 1968-01-01 00:00:00 TS -18.7906 42.4266 reunion main 174 174 O____O___OP_O_ jtwc_sh SH091968 -18.8000 42.1000 -1 -18.8000 42.9000 99 9.90000 -18.8000 42.1000 TC 35 -18.7531 42.1329 2 -18.8000 42.9000 TC 30 8 248
1967364S17043 1968 147 SI MM DEBBY 1968-01-01 03:00:00 TS -18.9010 42.0231 main 218 218 P____P___PP_P_ SH091968 -18.9225 41.7974 -1 -18.8828 42.3473 99 -18.9225 41.7974 TC 35 -18.8944 41.8262 2 -18.8828 42.3473 TC 30 7 259
1967364S17043 1968 147 SI MM DEBBY 1968-01-01 06:00:00 TS -18.9200 41.7200 reunion main 248 248 O____O___OO_O_ jtwc_sh SH091968 -19.0000 41.6000 -1 -18.8000 41.9000 2 9.90000 -19.0000 41.6000 TC 35 -19.0000 41.6000 2 -18.8000 41.9000 TC 30 4 275
1967364S17043 1968 147 SI MM DEBBY 1968-01-01 09:00:00 TS -18.8692 41.6319 main 258 256 P____P___PP_P_ SH091968 -19.0649 41.5624 -1 -18.5797 41.7626 2 -19.0649 41.5624 TC 35 -19.0566 41.5094 2 -18.5797 41.7626 TC 30 2 327
1967364S17043 1968 147 SI MM DEBBY 1968-01-01 12:00:00 TS -18.7759 41.6204 reunion main 256 255 O____O___OP_O_ jtwc_sh SH091968 -19.1000 41.6000 -1 -18.3000 41.7000 99 9.90000 -19.1000 41.6000 TC 35 -19.0797 41.5022 2 -18.3000 41.7000 TC 30 2 330
1967364S17043 1968 147 SI MM DEBBY 1968-01-01 15:00:00 TS -18.7006 41.5257 main 265 265 P____P___PP_P_ SH091968 -19.1000 41.6000 -1 -18.1076 41.4424 99 -19.1000 41.6000 TC 35 -19.0880 41.5439 2 -18.1076 41.4424 TC 30 2 307
1967364S17043 1968 147 SI MM DEBBY 1968-01-01 18:00:00 TS -18.6579 41.4526 reunion main 265 265 O____O___OO_O_ jtwc_sh SH091968 -19.1000 41.6000 -1 -17.9000 41.2000 99 9.90000 -19.1000 41.6000 TC 35 -19.1000 41.6000 2 -17.9000 41.2000 TC 30 1 310
1967364S17043 1968 147 SI MM DEBBY 1968-01-01 21:00:00 TS -18.6381 41.4409 main 275 264 P____P___PP_P_ SH091968 -19.1425 41.5925 -1 -17.6449 41.1050 99 -19.1425 41.5925 TC 35 -19.1304 41.6426 2 -17.6224 41.1026 TC 27 0 0
1967364S17043 1968 147 SI MM DEBBY 1968-01-02 00:00:00 TS -18.6102 41.4623 reunion main 264 264 O____O___OP_O_ jtwc_sh SH091968 -19.2000 41.6000 -1 -17.3000 41.1000 99 9.90000 -19.2000 41.6000 TC 35 -19.1776 41.6701 2 -17.3000 41.1000 TC 25 1 94
1967364S17043 1968 147 SI MM DEBBY 1968-01-02 03:00:00 TS -18.6440 41.5269 main 264 254 P____P___PP___ SH091968 -19.2525 41.6400 -1 -16.8350 41.1401 99 -19.2525 41.6400 TC 35 -19.2360 41.6876 2 TC 1 60
1967364S17043 1968 147 SI MM DEBBY 1968-01-02 06:00:00 TS -18.5500 41.5750 reunion main 253 O____O___OO___ jtwc_sh SH091968 -19.3000 41.7000 -1 -16.3000 41.2000 6 9.90000 -19.3000 41.7000 TC 35 -19.3000 41.7000 2 2 26

About IBTrACS Database

This database is a web-friendly format of International Best Track Archive for Climate Stewardship (IBTrACS), a global best track data archive curated by NOAA dating back to 1842.

Updated: 2021-10-25